sensor_id;sensor_type;location;lat;lon;timestamp;pressure;altitude;pressure_sealevel;temperature;humidity
35023;BME280;21214;44.912;8.204;2022-08-06T00:01:35;99465.50;;;24.15;100.00
35023;BME280;21214;44.912;8.204;2022-08-06T00:04:01;99467.38;;;24.02;100.00
35023;BME280;21214;44.912;8.204;2022-08-06T00:06:27;99460.88;;;23.92;100.00
35023;BME280;21214;44.912;8.204;2022-08-06T00:08:52;99465.47;;;23.91;100.00
35023;BME280;21214;44.912;8.204;2022-08-06T00:11:18;99464.53;;;23.97;100.00
35023;BME280;21214;44.912;8.204;2022-08-06T00:13:44;99467.81;;;23.99;100.00
35023;BME280;21214;44.912;8.204;2022-08-06T00:16:14;99459.50;;;24.01;100.00
35023;BME280;21214;44.912;8.204;2022-08-06T00:18:40;99457.16;;;24.04;100.00
35023;BME280;21214;44.912;8.204;2022-08-06T00:21:06;99458.69;;;24.00;100.00
35023;BME280;21214;44.912;8.204;2022-08-06T00:23:31;99461.50;;;24.05;100.00
35023;BME280;21214;44.912;8.204;2022-08-06T00:25:57;99469.69;;;24.11;100.00
35023;BME280;21214;44.912;8.204;2022-08-06T00:28:24;99465.97;;;24.12;100.00
35023;BME280;21214;44.912;8.204;2022-08-06T00:30:50;99463.16;;;24.06;100.00
35023;BME280;21214;44.912;8.204;2022-08-06T00:33:15;99460.09;;;24.03;100.00
35023;BME280;21214;44.912;8.204;2022-08-06T00:35:42;99460.78;;;23.98;100.00
35023;BME280;21214;44.912;8.204;2022-08-06T00:38:07;99457.22;;;23.86;100.00
35023;BME280;21214;44.912;8.204;2022-08-06T00:40:33;99456.38;;;23.74;100.00
35023;BME280;21214;44.912;8.204;2022-08-06T00:43:00;99456.78;;;23.48;100.00
35023;BME280;21214;44.912;8.204;2022-08-06T00:45:26;99457.66;;;23.42;100.00
35023;BME280;21214;44.912;8.204;2022-08-06T00:47:52;99467.38;;;23.43;100.00
35023;BME280;21214;44.912;8.204;2022-08-06T00:50:18;99465.28;;;23.45;100.00
35023;BME280;21214;44.912;8.204;2022-08-06T00:52:43;99461.69;;;23.51;100.00
35023;BME280;21214;44.912;8.204;2022-08-06T00:55:12;99466.25;;;23.50;100.00
35023;BME280;21214;44.912;8.204;2022-08-06T00:57:38;99454.44;;;23.51;100.00
35023;BME280;21214;44.912;8.204;2022-08-06T01:00:05;99456.47;;;23.56;100.00
35023;BME280;21214;44.912;8.204;2022-08-06T01:02:32;99452.25;;;23.60;100.00
35023;BME280;21214;44.912;8.204;2022-08-06T01:04:58;99463.38;;;23.63;100.00
35023;BME280;21214;44.912;8.204;2022-08-06T01:07:23;99462.13;;;23.66;100.00
35023;BME280;21214;44.912;8.204;2022-08-06T01:09:49;99461.50;;;23.64;100.00
35023;BME280;21214;44.912;8.204;2022-08-06T01:12:15;99459.28;;;23.61;100.00
35023;BME280;21214;44.912;8.204;2022-08-06T01:14:41;99454.81;;;23.55;100.00
35023;BME280;21214;44.912;8.204;2022-08-06T01:17:33;99453.63;;;23.51;100.00
35023;BME280;21214;44.912;8.204;2022-08-06T01:22:58;99452.00;;;23.50;100.00
35023;BME280;21214;44.912;8.204;2022-08-06T01:25:41;99450.19;;;23.44;100.00
35023;BME280;21214;44.912;8.204;2022-08-06T01:28:21;99463.22;;;23.28;100.00
35023;BME280;21214;44.912;8.204;2022-08-06T01:30:56;99459.38;;;23.06;100.00
35023;BME280;21214;44.912;8.204;2022-08-06T01:33:31;99452.81;;;22.84;100.00
35023;BME280;21214;44.912;8.204;2022-08-06T01:36:02;99454.13;;;22.75;100.00
35023;BME280;21214;44.912;8.204;2022-08-06T01:38:37;99460.84;;;22.66;100.00
35023;BME280;21214;44.912;8.204;2022-08-06T01:41:08;99462.91;;;22.64;100.00
35023;BME280;21214;44.912;8.204;2022-08-06T01:43:37;99467.41;;;22.70;100.00
35023;BME280;21214;44.912;8.204;2022-08-06T01:46:04;99474.59;;;22.76;100.00
35023;BME280;21214;44.912;8.204;2022-08-06T01:48:32;99474.53;;;22.82;100.00
35023;BME280;21214;44.912;8.204;2022-08-06T01:51:01;99475.72;;;22.86;100.00
35023;BME280;21214;44.912;8.204;2022-08-06T01:53:34;99473.44;;;22.90;100.00
35023;BME280;21214;44.912;8.204;2022-08-06T01:56:02;99480.47;;;22.91;100.00
35023;BME280;21214;44.912;8.204;2022-08-06T01:58:36;99476.69;;;22.92;100.00
35023;BME280;21214;44.912;8.204;2022-08-06T02:01:08;99476.41;;;22.82;100.00
35023;BME280;21214;44.912;8.204;2022-08-06T02:03:39;99484.38;;;22.70;100.00
35023;BME280;21214;44.912;8.204;2022-08-06T02:06:06;99479.94;;;22.58;100.00
35023;BME280;21214;44.912;8.204;2022-08-06T02:08:34;99485.31;;;22.58;100.00
35023;BME280;21214;44.912;8.204;2022-08-06T02:11:02;99483.59;;;22.63;100.00
35023;BME280;21214;44.912;8.204;2022-08-06T02:13:31;99490.25;;;22.61;100.00
35023;BME280;21214;44.912;8.204;2022-08-06T02:16:01;99496.28;;;22.38;100.00
35023;BME280;21214;44.912;8.204;2022-08-06T02:18:30;99496.16;;;22.26;100.00
35023;BME280;21214;44.912;8.204;2022-08-06T02:20:57;99497.63;;;22.22;100.00
35023;BME280;21214;44.912;8.204;2022-08-06T02:23:26;99498.41;;;22.29;100.00
35023;BME280;21214;44.912;8.204;2022-08-06T02:25:53;99495.00;;;22.40;100.00
35023;BME280;21214;44.912;8.204;2022-08-06T02:28:23;99496.94;;;22.52;100.00
35023;BME280;21214;44.912;8.204;2022-08-06T02:30:51;99496.06;;;22.58;100.00
35023;BME280;21214;44.912;8.204;2022-08-06T02:33:18;99490.69;;;22.58;100.00
35023;BME280;21214;44.912;8.204;2022-08-06T02:40:55;99487.47;;;22.49;100.00
35023;BME280;21214;44.912;8.204;2022-08-06T02:43:35;99493.16;;;22.59;100.00
35023;BME280;21214;44.912;8.204;2022-08-06T02:46:22;99493.09;;;22.66;100.00
35023;BME280;21214;44.912;8.204;2022-08-06T02:49:09;99487.13;;;22.64;100.00
35023;BME280;21214;44.912;8.204;2022-08-06T02:51:45;99479.03;;;22.64;100.00
35023;BME280;21214;44.912;8.204;2022-08-06T02:54:22;99483.75;;;22.68;100.00
35023;BME280;21214;44.912;8.204;2022-08-06T02:56:50;99493.44;;;22.76;100.00
35023;BME280;21214;44.912;8.204;2022-08-06T02:59:21;99492.13;;;22.85;100.00
35023;BME280;21214;44.912;8.204;2022-08-06T03:01:54;99490.75;;;22.94;100.00
35023;BME280;21214;44.912;8.204;2022-08-06T03:04:23;99491.50;;;23.01;100.00
35023;BME280;21214;44.912;8.204;2022-08-06T03:06:51;99488.13;;;23.06;100.00
35023;BME280;21214;44.912;8.204;2022-08-06T03:09:20;99491.19;;;23.09;100.00
35023;BME280;21214;44.912;8.204;2022-08-06T03:11:47;99491.81;;;23.11;100.00
35023;BME280;21214;44.912;8.204;2022-08-06T03:14:17;99489.72;;;23.13;100.00
35023;BME280;21214;44.912;8.204;2022-08-06T03:16:45;99492.47;;;23.07;100.00
35023;BME280;21214;44.912;8.204;2022-08-06T03:19:12;99489.25;;;22.98;100.00
35023;BME280;21214;44.912;8.204;2022-08-06T03:21:39;99485.38;;;22.94;100.00
35023;BME280;21214;44.912;8.204;2022-08-06T03:24:07;99492.41;;;22.95;100.00
35023;BME280;21214;44.912;8.204;2022-08-06T03:26:35;99502.00;;;22.91;100.00
35023;BME280;21214;44.912;8.204;2022-08-06T03:29:01;99493.66;;;22.93;100.00
35023;BME280;21214;44.912;8.204;2022-08-06T03:31:27;99489.94;;;22.94;100.00
35023;BME280;21214;44.912;8.204;2022-08-06T03:33:55;99490.00;;;22.87;100.00
35023;BME280;21214;44.912;8.204;2022-08-06T03:36:22;99494.63;;;22.80;100.00
35023;BME280;21214;44.912;8.204;2022-08-06T03:38:56;99504.19;;;22.76;100.00
35023;BME280;21214;44.912;8.204;2022-08-06T03:41:24;99498.84;;;22.69;100.00
35023;BME280;21214;44.912;8.204;2022-08-06T03:43:51;99504.75;;;22.60;100.00
35023;BME280;21214;44.912;8.204;2022-08-06T03:46:22;99493.00;;;22.54;100.00
35023;BME280;21214;44.912;8.204;2022-08-06T03:48:50;99491.97;;;22.55;100.00
35023;BME280;21214;44.912;8.204;2022-08-06T03:51:20;99496.53;;;22.55;100.00
35023;BME280;21214;44.912;8.204;2022-08-06T03:53:49;99499.94;;;22.43;100.00
35023;BME280;21214;44.912;8.204;2022-08-06T03:56:22;99493.34;;;22.39;100.00
35023;BME280;21214;44.912;8.204;2022-08-06T03:58:50;99507.19;;;22.18;100.00
35023;BME280;21214;44.912;8.204;2022-08-06T04:01:21;99501.97;;;22.23;100.00
35023;BME280;21214;44.912;8.204;2022-08-06T04:03:48;99501.81;;;22.18;100.00
35023;BME280;21214;44.912;8.204;2022-08-06T04:06:18;99503.47;;;22.19;100.00
35023;BME280;21214;44.912;8.204;2022-08-06T04:08:45;99496.84;;;22.15;100.00
35023;BME280;21214;44.912;8.204;2022-08-06T04:11:11;99492.31;;;22.16;100.00
35023;BME280;21214;44.912;8.204;2022-08-06T04:13:38;99495.59;;;22.18;100.00
35023;BME280;21214;44.912;8.204;2022-08-06T04:16:06;99496.84;;;22.15;100.00
35023;BME280;21214;44.912;8.204;2022-08-06T04:18:37;99500.88;;;22.06;100.00
35023;BME280;21214;44.912;8.204;2022-08-06T04:21:06;99509.78;;;22.00;100.00
35023;BME280;21214;44.912;8.204;2022-08-06T04:23:33;99502.75;;;21.99;100.00
35023;BME280;21214;44.912;8.204;2022-08-06T04:26:02;99508.75;;;22.01;100.00
35023;BME280;21214;44.912;8.204;2022-08-06T04:28:29;99510.56;;;22.07;100.00
35023;BME280;21214;44.912;8.204;2022-08-06T04:30:57;99511.78;;;22.11;100.00
35023;BME280;21214;44.912;8.204;2022-08-06T04:33:25;99507.00;;;22.13;100.00
35023;BME280;21214;44.912;8.204;2022-08-06T04:35:51;99508.66;;;22.14;100.00
35023;BME280;21214;44.912;8.204;2022-08-06T04:38:20;99509.72;;;22.13;100.00
35023;BME280;21214;44.912;8.204;2022-08-06T04:40:47;99511.41;;;22.08;100.00
35023;BME280;21214;44.912;8.204;2022-08-06T04:43:13;99519.72;;;21.99;100.00
35023;BME280;21214;44.912;8.204;2022-08-06T04:45:41;99522.41;;;21.93;100.00
35023;BME280;21214;44.912;8.204;2022-08-06T04:48:11;99526.75;;;21.94;100.00
35023;BME280;21214;44.912;8.204;2022-08-06T04:50:38;99533.81;;;21.95;100.00
35023;BME280;21214;44.912;8.204;2022-08-06T04:53:09;99535.47;;;21.96;100.00
35023;BME280;21214;44.912;8.204;2022-08-06T04:55:36;99533.75;;;22.01;100.00
35023;BME280;21214;44.912;8.204;2022-08-06T04:58:03;99536.81;;;22.05;100.00
35023;BME280;21214;44.912;8.204;2022-08-06T05:00:35;99541.53;;;22.10;100.00
35023;BME280;21214;44.912;8.204;2022-08-06T05:03:01;99543.16;;;22.17;100.00
35023;BME280;21214;44.912;8.204;2022-08-06T05:05:31;99546.88;;;22.16;100.00
35023;BME280;21214;44.912;8.204;2022-08-06T05:07:58;99551.84;;;22.19;100.00
35023;BME280;21214;44.912;8.204;2022-08-06T05:10:31;99550.81;;;22.20;100.00
35023;BME280;21214;44.912;8.204;2022-08-06T05:12:59;99547.03;;;22.21;100.00
35023;BME280;21214;44.912;8.204;2022-08-06T05:15:33;99564.41;;;22.25;100.00
35023;BME280;21214;44.912;8.204;2022-08-06T05:18:25;99564.22;;;22.20;100.00
35023;BME280;21214;44.912;8.204;2022-08-06T05:20:53;99564.72;;;22.04;100.00
35023;BME280;21214;44.912;8.204;2022-08-06T05:23:34;99564.31;;;22.07;100.00
35023;BME280;21214;44.912;8.204;2022-08-06T05:26:00;99563.88;;;22.10;100.00
35023;BME280;21214;44.912;8.204;2022-08-06T05:28:26;99574.19;;;22.13;100.00
35023;BME280;21214;44.912;8.204;2022-08-06T05:30:52;99581.22;;;22.14;100.00
35023;BME280;21214;44.912;8.204;2022-08-06T05:33:25;99572.09;;;22.15;100.00
35023;BME280;21214;44.912;8.204;2022-08-06T05:35:52;99573.88;;;22.03;100.00
35023;BME280;21214;44.912;8.204;2022-08-06T05:38:17;99578.16;;;22.04;100.00
35023;BME280;21214;44.912;8.204;2022-08-06T05:40:43;99573.63;;;22.04;100.00
35023;BME280;21214;44.912;8.204;2022-08-06T05:43:09;99579.41;;;22.08;100.00
35023;BME280;21214;44.912;8.204;2022-08-06T05:45:38;99586.81;;;22.13;100.00
35023;BME280;21214;44.912;8.204;2022-08-06T05:48:05;99580.84;;;22.04;100.00
35023;BME280;21214;44.912;8.204;2022-08-06T05:50:35;99585.25;;;21.92;100.00
35023;BME280;21214;44.912;8.204;2022-08-06T05:53:17;99582.53;;;21.92;100.00
35023;BME280;21214;44.912;8.204;2022-08-06T05:55:50;99583.03;;;21.82;100.00
35023;BME280;21214;44.912;8.204;2022-08-06T05:58:39;99588.44;;;21.76;100.00
35023;BME280;21214;44.912;8.204;2022-08-06T06:01:07;99590.28;;;21.75;100.00
35023;BME280;21214;44.912;8.204;2022-08-06T06:03:36;99590.94;;;21.71;100.00
35023;BME280;21214;44.912;8.204;2022-08-06T06:06:03;99585.13;;;21.74;100.00
35023;BME280;21214;44.912;8.204;2022-08-06T06:08:29;99593.38;;;21.79;100.00
35023;BME280;21214;44.912;8.204;2022-08-06T06:10:56;99583.41;;;21.86;100.00
35023;BME280;21214;44.912;8.204;2022-08-06T06:13:23;99587.91;;;21.92;100.00
35023;BME280;21214;44.912;8.204;2022-08-06T06:15:56;99592.06;;;22.01;100.00
35023;BME280;21214;44.912;8.204;2022-08-06T06:18:46;99591.19;;;22.07;100.00
35023;BME280;21214;44.912;8.204;2022-08-06T06:24:06;99589.97;;;22.34;100.00
35023;BME280;21214;44.912;8.204;2022-08-06T06:26:57;99597.94;;;22.48;100.00
35023;BME280;21214;44.912;8.204;2022-08-06T06:29:35;99587.97;;;22.55;100.00
35023;BME280;21214;44.912;8.204;2022-08-06T06:32:10;99593.66;;;22.65;100.00
35023;BME280;21214;44.912;8.204;2022-08-06T06:37:21;99595.25;;;22.79;100.00
35023;BME280;21214;44.912;8.204;2022-08-06T06:45:33;99604.41;;;23.14;100.00
35023;BME280;21214;44.912;8.204;2022-08-06T06:48:07;99607.00;;;23.21;100.00
35023;BME280;21214;44.912;8.204;2022-08-06T06:50:35;99603.91;;;23.24;100.00
35023;BME280;21214;44.912;8.204;2022-08-06T06:53:03;99598.50;;;23.24;100.00
35023;BME280;21214;44.912;8.204;2022-08-06T06:55:37;99605.00;;;23.35;100.00
35023;BME280;21214;44.912;8.204;2022-08-06T06:58:09;99596.19;;;23.46;100.00
35023;BME280;21214;44.912;8.204;2022-08-06T07:00:36;99607.53;;;23.54;100.00
35023;BME280;21214;44.912;8.204;2022-08-06T07:03:04;99597.50;;;23.61;100.00
35023;BME280;21214;44.912;8.204;2022-08-06T07:05:32;99587.53;;;23.62;100.00
35023;BME280;21214;44.912;8.204;2022-08-06T07:08:02;99592.81;;;23.68;100.00
35023;BME280;21214;44.912;8.204;2022-08-06T07:10:30;99583.19;;;23.79;100.00
35023;BME280;21214;44.912;8.204;2022-08-06T07:12:57;99592.72;;;23.93;100.00
35023;BME280;21214;44.912;8.204;2022-08-06T07:15:24;99592.97;;;24.03;100.00
35023;BME280;21214;44.912;8.204;2022-08-06T07:17:50;99596.28;;;24.05;100.00
35023;BME280;21214;44.912;8.204;2022-08-06T07:20:24;99596.41;;;24.11;100.00
35023;BME280;21214;44.912;8.204;2022-08-06T07:22:53;99591.16;;;24.16;100.00
35023;BME280;21214;44.912;8.204;2022-08-06T07:25:20;99588.63;;;24.21;100.00
35023;BME280;21214;44.912;8.204;2022-08-06T07:27:50;99591.81;;;24.29;100.00
35023;BME280;21214;44.912;8.204;2022-08-06T07:30:18;99596.63;;;24.39;100.00
35023;BME280;21214;44.912;8.204;2022-08-06T07:32:45;99601.09;;;24.45;100.00
35023;BME280;21214;44.912;8.204;2022-08-06T07:35:12;99600.56;;;24.55;100.00
35023;BME280;21214;44.912;8.204;2022-08-06T07:37:46;99601.38;;;24.55;100.00
35023;BME280;21214;44.912;8.204;2022-08-06T07:40:22;99606.66;;;24.62;100.00
35023;BME280;21214;44.912;8.204;2022-08-06T07:42:53;99598.22;;;24.70;100.00
35023;BME280;21214;44.912;8.204;2022-08-06T07:45:23;99604.09;;;24.78;100.00
35023;BME280;21214;44.912;8.204;2022-08-06T07:47:51;99599.56;;;24.91;100.00
35023;BME280;21214;44.912;8.204;2022-08-06T07:50:18;99600.72;;;24.95;100.00
35023;BME280;21214;44.912;8.204;2022-08-06T07:52:44;99593.91;;;25.04;100.00
35023;BME280;21214;44.912;8.204;2022-08-06T07:55:12;99592.03;;;25.16;100.00
35023;BME280;21214;44.912;8.204;2022-08-06T07:57:38;99596.34;;;25.28;100.00
35023;BME280;21214;44.912;8.204;2022-08-06T08:00:05;99593.06;;;25.38;99.88
35023;BME280;21214;44.912;8.204;2022-08-06T08:02:37;99587.28;;;25.46;98.93
35023;BME280;21214;44.912;8.204;2022-08-06T08:05:04;99592.94;;;25.56;100.00
35023;BME280;21214;44.912;8.204;2022-08-06T08:07:48;99595.63;;;25.68;99.81
35023;BME280;21214;44.912;8.204;2022-08-06T08:10:16;99606.47;;;25.85;97.78
35023;BME280;21214;44.912;8.204;2022-08-06T08:12:43;99603.16;;;25.94;97.27
35023;BME280;21214;44.912;8.204;2022-08-06T08:15:10;99599.34;;;26.07;96.63
35023;BME280;21214;44.912;8.204;2022-08-06T08:17:35;99592.44;;;26.16;95.35
35023;BME280;21214;44.912;8.204;2022-08-06T08:20:08;99601.88;;;26.25;98.33
35023;BME280;21214;44.912;8.204;2022-08-06T08:22:35;99597.69;;;26.34;95.49
35023;BME280;21214;44.912;8.204;2022-08-06T08:25:01;99592.47;;;26.44;93.67
35023;BME280;21214;44.912;8.204;2022-08-06T08:27:26;99594.50;;;26.54;90.20
35023;BME280;21214;44.912;8.204;2022-08-06T08:29:52;99586.00;;;26.62;92.23
35023;BME280;21214;44.912;8.204;2022-08-06T08:32:18;99576.63;;;26.70;92.65
35023;BME280;21214;44.912;8.204;2022-08-06T08:34:46;99580.56;;;26.79;92.40
35023;BME280;21214;44.912;8.204;2022-08-06T08:37:13;99583.44;;;26.89;92.71
35023;BME280;21214;44.912;8.204;2022-08-06T08:39:39;99574.97;;;27.02;90.37
35023;BME280;21214;44.912;8.204;2022-08-06T08:42:11;99581.13;;;27.14;91.60
35023;BME280;21214;44.912;8.204;2022-08-06T08:44:40;99580.44;;;27.24;91.16
35023;BME280;21214;44.912;8.204;2022-08-06T08:47:09;99580.81;;;27.33;91.58
35023;BME280;21214;44.912;8.204;2022-08-06T08:52:08;99583.72;;;27.48;86.41
35023;BME280;21214;44.912;8.204;2022-08-06T08:54:36;99588.47;;;27.57;82.81
35023;BME280;21214;44.912;8.204;2022-08-06T08:57:04;99585.56;;;27.64;82.74
35023;BME280;21214;44.912;8.204;2022-08-06T08:59:30;99585.06;;;27.67;84.17
35023;BME280;21214;44.912;8.204;2022-08-06T09:01:57;99593.84;;;27.74;84.19
35023;BME280;21214;44.912;8.204;2022-08-06T09:04:24;99587.94;;;27.82;85.33
35023;BME280;21214;44.912;8.204;2022-08-06T09:06:51;99587.50;;;27.90;84.04
35023;BME280;21214;44.912;8.204;2022-08-06T09:09:17;99588.13;;;27.97;83.97
35023;BME280;21214;44.912;8.204;2022-08-06T09:11:43;99591.00;;;28.13;77.12
35023;BME280;21214;44.912;8.204;2022-08-06T09:14:09;99584.81;;;28.17;79.14
35023;BME280;21214;44.912;8.204;2022-08-06T09:16:36;99586.88;;;28.32;76.07
35023;BME280;21214;44.912;8.204;2022-08-06T09:19:04;99579.59;;;28.37;77.85
35023;BME280;21214;44.912;8.204;2022-08-06T09:21:31;99580.97;;;28.40;78.27
35023;BME280;21214;44.912;8.204;2022-08-06T09:23:57;99584.81;;;28.44;77.04
35023;BME280;21214;44.912;8.204;2022-08-06T09:26:25;99587.81;;;28.47;76.45
35023;BME280;21214;44.912;8.204;2022-08-06T09:28:51;99584.31;;;28.52;76.01
35023;BME280;21214;44.912;8.204;2022-08-06T09:31:18;99587.06;;;28.57;76.08
35023;BME280;21214;44.912;8.204;2022-08-06T09:34:02;99587.38;;;28.61;75.28
35023;BME280;21214;44.912;8.204;2022-08-06T09:36:45;99586.34;;;28.67;74.70
35023;BME280;21214;44.912;8.204;2022-08-06T09:39:11;99586.16;;;28.73;74.45
35023;BME280;21214;44.912;8.204;2022-08-06T09:41:48;99576.41;;;28.77;74.11
35023;BME280;21214;44.912;8.204;2022-08-06T09:44:14;99576.69;;;28.81;73.95
35023;BME280;21214;44.912;8.204;2022-08-06T09:46:44;99572.09;;;28.86;75.44
35023;BME280;21214;44.912;8.204;2022-08-06T09:49:13;99570.00;;;28.94;75.10
35023;BME280;21214;44.912;8.204;2022-08-06T09:51:40;99566.22;;;29.00;74.88
35023;BME280;21214;44.912;8.204;2022-08-06T09:54:10;99570.63;;;29.11;73.36
35023;BME280;21214;44.912;8.204;2022-08-06T09:56:44;99564.44;;;29.20;72.24
35023;BME280;21214;44.912;8.204;2022-08-06T09:59:12;99566.38;;;29.25;72.67
35023;BME280;21214;44.912;8.204;2022-08-06T10:01:44;99556.59;;;29.29;68.93
35023;BME280;21214;44.912;8.204;2022-08-06T10:04:15;99562.16;;;29.44;66.82
35023;BME280;21214;44.912;8.204;2022-08-06T10:07:06;99558.38;;;29.50;68.39
35023;BME280;21214;44.912;8.204;2022-08-06T10:09:33;99556.19;;;29.52;68.15
35023;BME280;21214;44.912;8.204;2022-08-06T10:11:59;99563.84;;;29.60;68.46
35023;BME280;21214;44.912;8.204;2022-08-06T10:14:27;99555.69;;;29.65;70.42
35023;BME280;21214;44.912;8.204;2022-08-06T10:17:28;99548.66;;;29.75;69.34
35023;BME280;21214;44.912;8.204;2022-08-06T10:22:29;99550.38;;;29.96;65.84
35023;BME280;21214;44.912;8.204;2022-08-06T10:24:55;99540.84;;;30.03;65.82
35023;BME280;21214;44.912;8.204;2022-08-06T10:27:29;99549.28;;;30.07;66.72
35023;BME280;21214;44.912;8.204;2022-08-06T10:30:04;99549.84;;;30.09;65.33
35023;BME280;21214;44.912;8.204;2022-08-06T10:32:37;99540.59;;;30.20;63.37
35023;BME280;21214;44.912;8.204;2022-08-06T10:35:07;99549.03;;;30.29;60.85
35023;BME280;21214;44.912;8.204;2022-08-06T10:37:38;99540.84;;;30.34;60.37
35023;BME280;21214;44.912;8.204;2022-08-06T10:40:07;99536.78;;;30.41;60.82
35023;BME280;21214;44.912;8.204;2022-08-06T10:42:34;99533.53;;;30.39;60.76
35023;BME280;21214;44.912;8.204;2022-08-06T10:45:00;99527.53;;;30.52;58.96
35023;BME280;21214;44.912;8.204;2022-08-06T10:47:27;99525.94;;;30.57;62.64
35023;BME280;21214;44.912;8.204;2022-08-06T10:49:53;99527.00;;;30.56;62.47
35023;BME280;21214;44.912;8.204;2022-08-06T10:52:20;99527.84;;;30.56;63.29
35023;BME280;21214;44.912;8.204;2022-08-06T10:54:46;99529.47;;;30.57;63.52
35023;BME280;21214;44.912;8.204;2022-08-06T10:57:12;99527.00;;;30.66;59.73
35023;BME280;21214;44.912;8.204;2022-08-06T10:59:43;99521.00;;;30.74;60.54
35023;BME280;21214;44.912;8.204;2022-08-06T11:05:00;99515.56;;;30.69;61.64
35023;BME280;21214;44.912;8.204;2022-08-06T11:13:40;99511.69;;;30.90;57.65
35023;BME280;21214;44.912;8.204;2022-08-06T11:16:25;99513.84;;;30.98;56.27
35023;BME280;21214;44.912;8.204;2022-08-06T11:19:08;99507.03;;;31.06;55.71
35023;BME280;21214;44.912;8.204;2022-08-06T11:24:04;99501.84;;;31.14;57.28
35023;BME280;21214;44.912;8.204;2022-08-06T11:26:36;99499.94;;;31.15;59.83
35023;BME280;21214;44.912;8.204;2022-08-06T11:29:04;99501.00;;;31.14;59.49
35023;BME280;21214;44.912;8.204;2022-08-06T11:31:35;99498.03;;;31.15;57.28
35023;BME280;21214;44.912;8.204;2022-08-06T11:34:07;99485.44;;;31.24;54.86
35023;BME280;21214;44.912;8.204;2022-08-06T11:36:57;99487.09;;;31.20;57.04
35023;BME280;21214;44.912;8.204;2022-08-06T11:39:25;99482.97;;;31.23;55.45
35023;BME280;21214;44.912;8.204;2022-08-06T11:42:00;99474.50;;;31.29;56.42
35023;BME280;21214;44.912;8.204;2022-08-06T11:44:31;99466.81;;;31.37;55.72
35023;BME280;21214;44.912;8.204;2022-08-06T11:47:14;99451.81;;;31.44;55.28
35023;BME280;21214;44.912;8.204;2022-08-06T11:49:48;99448.19;;;31.59;56.31
35023;BME280;21214;44.912;8.204;2022-08-06T11:55:05;99446.97;;;31.80;54.09
35023;BME280;21214;44.912;8.204;2022-08-06T11:57:32;99435.41;;;31.88;56.19
35023;BME280;21214;44.912;8.204;2022-08-06T12:07:38;99421.41;;;32.58;52.64
35023;BME280;21214;44.912;8.204;2022-08-06T12:17:30;99417.63;;;33.62;45.38
35023;BME280;21214;44.912;8.204;2022-08-06T12:19:58;99412.72;;;33.97;48.27
35023;BME280;21214;44.912;8.204;2022-08-06T12:22:26;99401.75;;;34.29;48.58
35023;BME280;21214;44.912;8.204;2022-08-06T12:24:55;99398.84;;;34.67;48.62
35023;BME280;21214;44.912;8.204;2022-08-06T12:27:23;99399.00;;;35.11;47.16
35023;BME280;21214;44.912;8.204;2022-08-06T12:29:55;99391.31;;;35.49;48.91
35023;BME280;21214;44.912;8.204;2022-08-06T12:34:47;99384.16;;;36.06;42.67
35023;BME280;21214;44.912;8.204;2022-08-06T12:37:14;99375.91;;;36.29;43.21
35023;BME280;21214;44.912;8.204;2022-08-06T12:39:41;99371.91;;;36.43;42.75
35023;BME280;21214;44.912;8.204;2022-08-06T12:42:27;99368.34;;;36.74;42.01
35023;BME280;21214;44.912;8.204;2022-08-06T12:44:53;99371.63;;;37.02;41.93
35023;BME280;21214;44.912;8.204;2022-08-06T12:47:20;99366.81;;;37.33;41.52
35023;BME280;21214;44.912;8.204;2022-08-06T12:49:46;99374.56;;;37.83;38.04
35023;BME280;21214;44.912;8.204;2022-08-06T12:52:16;99368.22;;;38.55;35.73
35023;BME280;21214;44.912;8.204;2022-08-06T12:54:46;99361.38;;;39.40;36.06
35023;BME280;21214;44.912;8.204;2022-08-06T12:57:25;99368.13;;;39.96;33.93
35023;BME280;21214;44.912;8.204;2022-08-06T12:59:53;99357.63;;;40.23;34.60
35023;BME280;21214;44.912;8.204;2022-08-06T13:02:21;99356.97;;;39.93;32.62
35023;BME280;21214;44.912;8.204;2022-08-06T13:04:53;99354.88;;;39.57;31.84
35023;BME280;21214;44.912;8.204;2022-08-06T13:07:20;99351.13;;;39.41;37.47
35023;BME280;21214;44.912;8.204;2022-08-06T13:09:47;99348.38;;;39.41;35.26
35023;BME280;21214;44.912;8.204;2022-08-06T13:12:15;99346.34;;;39.50;33.63
35023;BME280;21214;44.912;8.204;2022-08-06T13:14:56;99347.75;;;39.14;30.47
35023;BME280;21214;44.912;8.204;2022-08-06T13:17:23;99342.22;;;39.14;32.92
35023;BME280;21214;44.912;8.204;2022-08-06T13:19:53;99335.94;;;39.35;34.21
35023;BME280;21214;44.912;8.204;2022-08-06T13:22:25;99339.94;;;39.58;34.54
35023;BME280;21214;44.912;8.204;2022-08-06T13:25:11;99342.59;;;39.66;31.36
35023;BME280;21214;44.912;8.204;2022-08-06T13:27:37;99329.13;;;39.65;32.91
35023;BME280;21214;44.912;8.204;2022-08-06T13:30:08;99336.25;;;39.66;34.14
35023;BME280;21214;44.912;8.204;2022-08-06T13:32:34;99331.53;;;39.87;36.50
35023;BME280;21214;44.912;8.204;2022-08-06T13:35:03;99331.78;;;40.19;38.16
35023;BME280;21214;44.912;8.204;2022-08-06T13:37:52;99332.97;;;40.30;30.10
35023;BME280;21214;44.912;8.204;2022-08-06T13:40:19;99327.81;;;40.28;32.62
35023;BME280;21214;44.912;8.204;2022-08-06T13:43:00;99324.25;;;40.40;32.83
35023;BME280;21214;44.912;8.204;2022-08-06T13:45:27;99315.72;;;40.33;33.46
35023;BME280;21214;44.912;8.204;2022-08-06T13:48:07;99318.38;;;40.29;35.62
35023;BME280;21214;44.912;8.204;2022-08-06T13:50:43;99302.75;;;40.00;33.14
35023;BME280;21214;44.912;8.204;2022-08-06T13:53:11;99310.13;;;40.08;31.90
35023;BME280;21214;44.912;8.204;2022-08-06T13:55:39;99312.66;;;40.14;34.34
35023;BME280;21214;44.912;8.204;2022-08-06T13:58:07;99310.34;;;39.91;35.15
35023;BME280;21214;44.912;8.204;2022-08-06T14:00:35;99306.66;;;39.34;31.04
35023;BME280;21214;44.912;8.204;2022-08-06T14:03:02;99309.47;;;38.92;32.96
35023;BME280;21214;44.912;8.204;2022-08-06T14:05:28;99298.28;;;38.59;33.49